Domov               UVHVVR             MKGP            O straneh              
ZDRAVSTVENO VARSTVO RASTLIN
  MREŽA AGROMET. POSTAJ
 ► PROGNOSTIČNA OBVESTILA
AGROMETEOROLOŠKI PODATKI -
ARSO
OBVLADOVANJE TVEGANJ ZARADI
NEUGODNIH VREMENSKIH RAZMER
  ► NARAVNE NESREČE
  ► SUŠA/MOČA
  ► NAMAKANJE
  ► ŽLED (gozdarstvo)
KARTOGRAFSKI PRIKAZI
SPLETNE POVEZAVE
PROJEKTI IN PUBLIKACIJE

AGROMETEOROLOŠKA MREŽA: VREMENSKE POSTAJE IN FENOLOŠKA OPAZOVANJA

Pregled podatkov za lokacijo Vitomarci, meteorološka postaja 25168

Pregled senzorjev na lokaciji

ID Ime Zadnja
vrednost
Datum
zadnje
spremembe
Tip
senzorja
1922 Omočenost lista (U) 0 U 25.3.2019 00:29 A730WET
1921 Padavine (mm) 0 mm 25.3.2019 00:29 Generic 0.2 mm
1923 Relativna vlaga 2 m (% RH) 59,19 % RH 25.3.2019 00:30 Generic 0 - 100 %
1924 Temperatura 2 m (°C) 9,16 °C 25.3.2019 00:30 Generic -40 - +60 °C

Pregled podatkov zadnjih 24 ur

Zap.
št.
Datum in čas Vitomarci
Omočenost
lista
Padavine Relativna
vlaga
2
m
Temperatura
2
m
1 25.3.2019 00:00
2 24.3.2019 23:30 0 0 59,2 9,2
3 24.3.2019 23:00 0 0 55,7 9,3
4 24.3.2019 22:30 0 0 51,4 10
5 24.3.2019 22:00 0 0 49,7 10
6 24.3.2019 21:30 0 0 48,3 10
7 24.3.2019 21:00 0 0 47 10,7
8 24.3.2019 20:30 0 0 46,8 11,2
9 24.3.2019 20:00 0 0 46,7 11,3
10 24.3.2019 19:30 0 0 44,8 11,8
11 24.3.2019 19:00 0 0 42,1 13,2
12 24.3.2019 18:30 0 0 37,6 16,3
13 24.3.2019 18:00 0 0 35,9 20,6
14 24.3.2019 17:30 0 0 35,8 19,7
15 24.3.2019 17:00 0 0 26,7 19,8
16 24.3.2019 16:30 0 0 26,9 20,3
17 24.3.2019 16:00 0 0 27,4 20,3
18 24.3.2019 15:30 0 0 26,4 20,6
19 24.3.2019 15:00 0 0 26,8 21,1
20 24.3.2019 14:30 0 0 27,5 20,7
21 24.3.2019 14:00 0 0 30,4 20,4
22 24.3.2019 13:30 0 0 28,9 20,4
23 24.3.2019 13:00 0 0 28,5 20,4
24 24.3.2019 12:30 0 0 31,3 19,6
25 24.3.2019 12:00 0 0 36,4 18,7
26 24.3.2019 11:30 0 0 40 18,2
27 24.3.2019 11:00 0 0 42,3 17
28 24.3.2019 10:30 0 0 41,5 16
29 24.3.2019 10:00 0 0 48,8 14,1
30 24.3.2019 09:30 0 0 55,2 11,8
31 24.3.2019 09:00 0 0 59,1 10,4
32 24.3.2019 08:30 0 0 63,1 8,8
33 24.3.2019 08:00 0 0 70 7,2
34 24.3.2019 07:30 0 0 73,9 6,4
35 24.3.2019 07:00 0 0 75,4 5,9
36 24.3.2019 06:30 2 0 80,2 5,1
37 24.3.2019 06:00 5 0 87,1 3,9
38 24.3.2019 05:30 2 0 83,9 4,2
39 24.3.2019 05:00 0 0 81,2 4,5
40 24.3.2019 04:30 0 0 79 5
41 24.3.2019 04:00 0 0 75,4 5,6
42 24.3.2019 03:30 0 0 73,9 6
43 24.3.2019 03:00 0 0 70,9 6,7
44 24.3.2019 02:30 0 0 70,7 6,9
45 24.3.2019 02:00 0 0 73,4 6,7
46 24.3.2019 01:30 0 0 70,6 7,2
47 24.3.2019 01:00 0 0 66,5 8,1
48 24.3.2019 00:30 0 0 67,6 8,1
© 2011 Ministrstvo za kmetijstvo, gozdarstvo in prehrano. Vse pravice pridržane.